sensor_id;sensor_type;location;lat;lon;timestamp;P1;durP1;ratioP1;P2;durP2;ratioP2
55292;SDS011;41157;53.560;10.098;2023-02-15T00:01:54;87.30;;;40.83;;
55292;SDS011;41157;53.560;10.098;2023-02-15T00:04:22;131.13;;;41.17;;
55292;SDS011;41157;53.560;10.098;2023-02-15T00:06:50;181.33;;;41.47;;
55292;SDS011;41157;53.560;10.098;2023-02-15T00:09:17;116.50;;;40.37;;
55292;SDS011;41157;53.560;10.098;2023-02-15T00:11:44;110.77;;;41.43;;
55292;SDS011;41157;53.560;10.098;2023-02-15T00:14:16;150.53;;;42.57;;
55292;SDS011;41157;53.560;10.098;2023-02-15T00:16:44;124.33;;;40.73;;
55292;SDS011;41157;53.560;10.098;2023-02-15T00:19:12;126.80;;;42.43;;
55292;SDS011;41157;53.560;10.098;2023-02-15T00:21:39;85.40;;;42.07;;
55292;SDS011;41157;53.560;10.098;2023-02-15T00:24:08;102.40;;;42.57;;
55292;SDS011;41157;53.560;10.098;2023-02-15T00:26:35;104.20;;;44.40;;
55292;SDS011;41157;53.560;10.098;2023-02-15T00:29:04;125.47;;;43.57;;
55292;SDS011;41157;53.560;10.098;2023-02-15T00:31:31;187.23;;;41.67;;
55292;SDS011;41157;53.560;10.098;2023-02-15T00:34:00;112.23;;;41.60;;
55292;SDS011;41157;53.560;10.098;2023-02-15T00:36:28;85.77;;;41.20;;
55292;SDS011;41157;53.560;10.098;2023-02-15T00:38:55;147.07;;;42.73;;
55292;SDS011;41157;53.560;10.098;2023-02-15T00:41:23;116.37;;;41.97;;
55292;SDS011;41157;53.560;10.098;2023-02-15T00:43:50;141.00;;;40.20;;
55292;SDS011;41157;53.560;10.098;2023-02-15T00:46:17;105.33;;;41.53;;
55292;SDS011;41157;53.560;10.098;2023-02-15T00:48:44;161.57;;;42.17;;
55292;SDS011;41157;53.560;10.098;2023-02-15T00:51:11;117.03;;;42.10;;
55292;SDS011;41157;53.560;10.098;2023-02-15T00:53:38;121.07;;;39.53;;
55292;SDS011;41157;53.560;10.098;2023-02-15T00:56:05;144.70;;;40.17;;
55292;SDS011;41157;53.560;10.098;2023-02-15T00:58:33;139.20;;;37.60;;
55292;SDS011;41157;53.560;10.098;2023-02-15T01:01:02;122.87;;;42.80;;
55292;SDS011;41157;53.560;10.098;2023-02-15T01:03:30;162.47;;;37.93;;
55292;SDS011;41157;53.560;10.098;2023-02-15T01:05:57;174.33;;;39.03;;
55292;SDS011;41157;53.560;10.098;2023-02-15T01:08:24;115.43;;;40.10;;
55292;SDS011;41157;53.560;10.098;2023-02-15T01:10:51;221.10;;;37.97;;
55292;SDS011;41157;53.560;10.098;2023-02-15T01:13:18;125.00;;;39.43;;
55292;SDS011;41157;53.560;10.098;2023-02-15T01:15:51;98.30;;;39.20;;
55292;SDS011;41157;53.560;10.098;2023-02-15T01:18:19;146.53;;;38.67;;
55292;SDS011;41157;53.560;10.098;2023-02-15T01:20:46;137.97;;;39.80;;
55292;SDS011;41157;53.560;10.098;2023-02-15T01:23:13;161.47;;;40.87;;
55292;SDS011;41157;53.560;10.098;2023-02-15T01:25:40;84.60;;;41.33;;
55292;SDS011;41157;53.560;10.098;2023-02-15T01:28:07;117.90;;;40.67;;
55292;SDS011;41157;53.560;10.098;2023-02-15T01:30:34;109.87;;;43.00;;
55292;SDS011;41157;53.560;10.098;2023-02-15T01:33:02;91.13;;;40.93;;
55292;SDS011;41157;53.560;10.098;2023-02-15T01:35:29;116.20;;;41.13;;
55292;SDS011;41157;53.560;10.098;2023-02-15T01:37:57;108.23;;;41.50;;
55292;SDS011;41157;53.560;10.098;2023-02-15T01:40:24;125.07;;;41.00;;
55292;SDS011;41157;53.560;10.098;2023-02-15T01:42:51;89.63;;;40.33;;
55292;SDS011;41157;53.560;10.098;2023-02-15T01:45:20;141.90;;;40.30;;
55292;SDS011;41157;53.560;10.098;2023-02-15T01:47:48;92.90;;;39.53;;
55292;SDS011;41157;53.560;10.098;2023-02-15T01:50:18;110.33;;;38.77;;
55292;SDS011;41157;53.560;10.098;2023-02-15T01:52:48;131.60;;;37.37;;
55292;SDS011;41157;53.560;10.098;2023-02-15T01:55:16;125.67;;;39.63;;
55292;SDS011;41157;53.560;10.098;2023-02-15T01:57:44;114.63;;;37.33;;
55292;SDS011;41157;53.560;10.098;2023-02-15T02:00:12;101.37;;;37.70;;
55292;SDS011;41157;53.560;10.098;2023-02-15T02:02:40;112.77;;;39.17;;
55292;SDS011;41157;53.560;10.098;2023-02-15T02:05:07;89.20;;;38.30;;
55292;SDS011;41157;53.560;10.098;2023-02-15T02:07:36;82.07;;;39.57;;
55292;SDS011;41157;53.560;10.098;2023-02-15T02:10:05;137.03;;;40.13;;
55292;SDS011;41157;53.560;10.098;2023-02-15T02:12:32;120.23;;;37.60;;
55292;SDS011;41157;53.560;10.098;2023-02-15T02:15:00;122.37;;;37.90;;
55292;SDS011;41157;53.560;10.098;2023-02-15T02:17:29;82.77;;;39.40;;
55292;SDS011;41157;53.560;10.098;2023-02-15T02:20:03;102.97;;;38.17;;
55292;SDS011;41157;53.560;10.098;2023-02-15T02:25:32;83.70;;;38.87;;
55292;SDS011;41157;53.560;10.098;2023-02-15T02:28:08;88.20;;;39.03;;
55292;SDS011;41157;53.560;10.098;2023-02-15T02:30:49;93.97;;;37.93;;
55292;SDS011;41157;53.560;10.098;2023-02-15T02:33:24;90.77;;;37.40;;
55292;SDS011;41157;53.560;10.098;2023-02-15T02:35:57;95.43;;;38.00;;
55292;SDS011;41157;53.560;10.098;2023-02-15T02:38:26;141.63;;;37.37;;
55292;SDS011;41157;53.560;10.098;2023-02-15T02:40:55;104.17;;;37.97;;
55292;SDS011;41157;53.560;10.098;2023-02-15T02:43:28;108.07;;;36.27;;
55292;SDS011;41157;53.560;10.098;2023-02-15T02:45:58;147.30;;;37.70;;
55292;SDS011;41157;53.560;10.098;2023-02-15T02:48:28;123.60;;;39.30;;
55292;SDS011;41157;53.560;10.098;2023-02-15T02:50:57;91.93;;;36.30;;
55292;SDS011;41157;53.560;10.098;2023-02-15T02:53:24;126.67;;;38.03;;
55292;SDS011;41157;53.560;10.098;2023-02-15T02:55:51;111.17;;;36.23;;
55292;SDS011;41157;53.560;10.098;2023-02-15T02:58:21;104.30;;;37.20;;
55292;SDS011;41157;53.560;10.098;2023-02-15T03:00:51;81.03;;;35.43;;
55292;SDS011;41157;53.560;10.098;2023-02-15T03:03:20;104.37;;;36.40;;
55292;SDS011;41157;53.560;10.098;2023-02-15T03:05:50;81.47;;;36.50;;
55292;SDS011;41157;53.560;10.098;2023-02-15T03:08:20;87.47;;;34.17;;
55292;SDS011;41157;53.560;10.098;2023-02-15T03:10:48;139.90;;;35.73;;
55292;SDS011;41157;53.560;10.098;2023-02-15T03:13:17;72.67;;;36.67;;
55292;SDS011;41157;53.560;10.098;2023-02-15T03:15:44;102.07;;;35.90;;
55292;SDS011;41157;53.560;10.098;2023-02-15T03:18:45;104.37;;;34.30;;
55292;SDS011;41157;53.560;10.098;2023-02-15T03:21:19;97.93;;;34.60;;
55292;SDS011;41157;53.560;10.098;2023-02-15T03:23:48;115.57;;;34.97;;
55292;SDS011;41157;53.560;10.098;2023-02-15T03:26:16;106.93;;;37.03;;
55292;SDS011;41157;53.560;10.098;2023-02-15T03:28:45;70.50;;;34.93;;
55292;SDS011;41157;53.560;10.098;2023-02-15T03:31:12;102.73;;;36.27;;
55292;SDS011;41157;53.560;10.098;2023-02-15T03:33:42;73.53;;;35.93;;
55292;SDS011;41157;53.560;10.098;2023-02-15T03:36:11;150.57;;;35.70;;
55292;SDS011;41157;53.560;10.098;2023-02-15T03:38:48;155.80;;;35.33;;
55292;SDS011;41157;53.560;10.098;2023-02-15T03:41:18;123.33;;;36.93;;
55292;SDS011;41157;53.560;10.098;2023-02-15T03:43:49;76.13;;;35.97;;
55292;SDS011;41157;53.560;10.098;2023-02-15T03:46:18;142.00;;;36.20;;
55292;SDS011;41157;53.560;10.098;2023-02-15T03:48:48;114.10;;;35.67;;
55292;SDS011;41157;53.560;10.098;2023-02-15T03:51:17;67.87;;;36.73;;
55292;SDS011;41157;53.560;10.098;2023-02-15T03:54:03;75.60;;;35.77;;
55292;SDS011;41157;53.560;10.098;2023-02-15T03:56:31;81.17;;;34.07;;
55292;SDS011;41157;53.560;10.098;2023-02-15T03:58:59;75.93;;;31.33;;
55292;SDS011;41157;53.560;10.098;2023-02-15T04:01:47;116.90;;;32.37;;
55292;SDS011;41157;53.560;10.098;2023-02-15T04:04:24;71.43;;;34.43;;
55292;SDS011;41157;53.560;10.098;2023-02-15T04:06:53;117.60;;;34.40;;
55292;SDS011;41157;53.560;10.098;2023-02-15T04:09:22;65.73;;;32.53;;
55292;SDS011;41157;53.560;10.098;2023-02-15T04:12:06;113.43;;;35.23;;
55292;SDS011;41157;53.560;10.098;2023-02-15T04:14:33;71.40;;;32.23;;
55292;SDS011;41157;53.560;10.098;2023-02-15T04:17:18;108.73;;;35.63;;
55292;SDS011;41157;53.560;10.098;2023-02-15T04:19:45;61.00;;;32.83;;
55292;SDS011;41157;53.560;10.098;2023-02-15T04:22:30;91.27;;;31.33;;
55292;SDS011;41157;53.560;10.098;2023-02-15T04:25:20;83.90;;;32.57;;
55292;SDS011;41157;53.560;10.098;2023-02-15T04:27:51;79.73;;;33.43;;
55292;SDS011;41157;53.560;10.098;2023-02-15T04:30:19;61.80;;;34.30;;
55292;SDS011;41157;53.560;10.098;2023-02-15T04:32:46;73.60;;;31.40;;
55292;SDS011;41157;53.560;10.098;2023-02-15T04:35:14;78.03;;;31.33;;
55292;SDS011;41157;53.560;10.098;2023-02-15T04:37:42;119.67;;;32.57;;
55292;SDS011;41157;53.560;10.098;2023-02-15T04:40:10;84.93;;;33.97;;
55292;SDS011;41157;53.560;10.098;2023-02-15T04:42:38;122.27;;;35.23;;
55292;SDS011;41157;53.560;10.098;2023-02-15T04:45:06;92.97;;;31.87;;
55292;SDS011;41157;53.560;10.098;2023-02-15T04:47:33;111.53;;;31.07;;
55292;SDS011;41157;53.560;10.098;2023-02-15T04:50:00;71.23;;;29.43;;
55292;SDS011;41157;53.560;10.098;2023-02-15T04:52:28;123.23;;;30.33;;
55292;SDS011;41157;53.560;10.098;2023-02-15T04:54:55;83.20;;;30.50;;
55292;SDS011;41157;53.560;10.098;2023-02-15T04:57:22;126.13;;;29.80;;
55292;SDS011;41157;53.560;10.098;2023-02-15T04:59:50;138.23;;;29.40;;
55292;SDS011;41157;53.560;10.098;2023-02-15T05:02:17;96.73;;;26.73;;
55292;SDS011;41157;53.560;10.098;2023-02-15T05:04:45;115.13;;;29.73;;
55292;SDS011;41157;53.560;10.098;2023-02-15T05:07:12;63.03;;;27.83;;
55292;SDS011;41157;53.560;10.098;2023-02-15T05:09:42;103.73;;;29.47;;
55292;SDS011;41157;53.560;10.098;2023-02-15T05:12:09;55.20;;;27.13;;
55292;SDS011;41157;53.560;10.098;2023-02-15T05:14:37;68.23;;;26.23;;
55292;SDS011;41157;53.560;10.098;2023-02-15T05:17:05;85.70;;;25.07;;
55292;SDS011;41157;53.560;10.098;2023-02-15T05:19:32;51.97;;;27.73;;
55292;SDS011;41157;53.560;10.098;2023-02-15T05:21:59;70.50;;;27.43;;
55292;SDS011;41157;53.560;10.098;2023-02-15T05:24:26;63.03;;;27.17;;
55292;SDS011;41157;53.560;10.098;2023-02-15T05:27:11;81.40;;;25.70;;
55292;SDS011;41157;53.560;10.098;2023-02-15T05:29:56;62.77;;;26.17;;
55292;SDS011;41157;53.560;10.098;2023-02-15T05:32:24;102.13;;;26.63;;
55292;SDS011;41157;53.560;10.098;2023-02-15T05:34:51;88.20;;;26.57;;
55292;SDS011;41157;53.560;10.098;2023-02-15T05:37:18;65.87;;;25.47;;
55292;SDS011;41157;53.560;10.098;2023-02-15T05:39:45;55.13;;;25.30;;
55292;SDS011;41157;53.560;10.098;2023-02-15T05:42:12;54.70;;;24.83;;
55292;SDS011;41157;53.560;10.098;2023-02-15T05:44:39;64.63;;;25.27;;
55292;SDS011;41157;53.560;10.098;2023-02-15T05:47:06;52.00;;;24.60;;
55292;SDS011;41157;53.560;10.098;2023-02-15T05:49:35;82.70;;;24.53;;
55292;SDS011;41157;53.560;10.098;2023-02-15T05:52:02;42.20;;;23.80;;
55292;SDS011;41157;53.560;10.098;2023-02-15T05:54:29;79.67;;;24.20;;
55292;SDS011;41157;53.560;10.098;2023-02-15T05:56:56;76.73;;;24.93;;
55292;SDS011;41157;53.560;10.098;2023-02-15T05:59:23;44.57;;;23.23;;
55292;SDS011;41157;53.560;10.098;2023-02-15T06:01:50;51.73;;;24.83;;
55292;SDS011;41157;53.560;10.098;2023-02-15T06:04:17;41.57;;;25.60;;
55292;SDS011;41157;53.560;10.098;2023-02-15T06:06:45;44.73;;;25.37;;
55292;SDS011;41157;53.560;10.098;2023-02-15T06:09:13;47.23;;;24.60;;
55292;SDS011;41157;53.560;10.098;2023-02-15T06:11:43;122.57;;;26.23;;
55292;SDS011;41157;53.560;10.098;2023-02-15T06:14:10;61.93;;;24.97;;
55292;SDS011;41157;53.560;10.098;2023-02-15T06:16:37;85.37;;;23.00;;
55292;SDS011;41157;53.560;10.098;2023-02-15T06:19:04;89.90;;;26.13;;
55292;SDS011;41157;53.560;10.098;2023-02-15T06:21:31;39.47;;;25.23;;
55292;SDS011;41157;53.560;10.098;2023-02-15T06:24:00;54.57;;;25.83;;
55292;SDS011;41157;53.560;10.098;2023-02-15T06:26:27;39.90;;;22.90;;
55292;SDS011;41157;53.560;10.098;2023-02-15T06:28:54;54.43;;;23.90;;
55292;SDS011;41157;53.560;10.098;2023-02-15T06:31:21;61.90;;;24.70;;
55292;SDS011;41157;53.560;10.098;2023-02-15T06:33:48;106.30;;;24.00;;
55292;SDS011;41157;53.560;10.098;2023-02-15T06:36:15;60.47;;;24.37;;
55292;SDS011;41157;53.560;10.098;2023-02-15T06:38:42;50.43;;;24.23;;
55292;SDS011;41157;53.560;10.098;2023-02-15T06:41:10;80.47;;;23.80;;
55292;SDS011;41157;53.560;10.098;2023-02-15T06:43:37;94.03;;;24.60;;
55292;SDS011;41157;53.560;10.098;2023-02-15T06:46:04;64.53;;;23.73;;
55292;SDS011;41157;53.560;10.098;2023-02-15T06:48:31;82.47;;;25.67;;
55292;SDS011;41157;53.560;10.098;2023-02-15T06:50:59;62.63;;;26.43;;
55292;SDS011;41157;53.560;10.098;2023-02-15T06:53:26;103.87;;;27.37;;
55292;SDS011;41157;53.560;10.098;2023-02-15T06:55:59;69.67;;;26.43;;
55292;SDS011;41157;53.560;10.098;2023-02-15T06:58:29;67.40;;;27.77;;
55292;SDS011;41157;53.560;10.098;2023-02-15T07:00:56;76.73;;;27.93;;
55292;SDS011;41157;53.560;10.098;2023-02-15T07:03:23;51.63;;;26.83;;
55292;SDS011;41157;53.560;10.098;2023-02-15T07:05:53;43.63;;;26.03;;
55292;SDS011;41157;53.560;10.098;2023-02-15T07:08:20;61.30;;;24.60;;
55292;SDS011;41157;53.560;10.098;2023-02-15T07:10:48;84.90;;;26.67;;
55292;SDS011;41157;53.560;10.098;2023-02-15T07:13:15;49.93;;;26.10;;
55292;SDS011;41157;53.560;10.098;2023-02-15T07:15:42;69.43;;;24.93;;
55292;SDS011;41157;53.560;10.098;2023-02-15T07:18:10;88.83;;;26.57;;
55292;SDS011;41157;53.560;10.098;2023-02-15T07:20:37;65.97;;;24.47;;
55292;SDS011;41157;53.560;10.098;2023-02-15T07:23:06;44.03;;;25.67;;
55292;SDS011;41157;53.560;10.098;2023-02-15T07:25:34;62.77;;;25.73;;
55292;SDS011;41157;53.560;10.098;2023-02-15T07:28:02;54.13;;;24.30;;
55292;SDS011;41157;53.560;10.098;2023-02-15T07:30:29;46.63;;;25.03;;
55292;SDS011;41157;53.560;10.098;2023-02-15T07:32:58;39.30;;;24.20;;
55292;SDS011;41157;53.560;10.098;2023-02-15T07:35:46;83.97;;;24.80;;
55292;SDS011;41157;53.560;10.098;2023-02-15T07:38:14;53.90;;;24.07;;
55292;SDS011;41157;53.560;10.098;2023-02-15T07:40:41;41.10;;;25.90;;
55292;SDS011;41157;53.560;10.098;2023-02-15T07:43:08;69.43;;;26.97;;
55292;SDS011;41157;53.560;10.098;2023-02-15T07:45:35;40.87;;;24.07;;
55292;SDS011;41157;53.560;10.098;2023-02-15T07:48:04;56.10;;;24.10;;
55292;SDS011;41157;53.560;10.098;2023-02-15T07:50:31;47.80;;;23.07;;
55292;SDS011;41157;53.560;10.098;2023-02-15T07:53:00;50.97;;;24.47;;
55292;SDS011;41157;53.560;10.098;2023-02-15T07:55:27;55.20;;;23.47;;
55292;SDS011;41157;53.560;10.098;2023-02-15T07:57:55;51.30;;;22.07;;
55292;SDS011;41157;53.560;10.098;2023-02-15T08:00:22;54.77;;;23.00;;
55292;SDS011;41157;53.560;10.098;2023-02-15T08:02:49;61.80;;;23.93;;
55292;SDS011;41157;53.560;10.098;2023-02-15T08:05:39;56.37;;;23.33;;
55292;SDS011;41157;53.560;10.098;2023-02-15T08:08:06;61.83;;;24.20;;
55292;SDS011;41157;53.560;10.098;2023-02-15T08:10:33;42.23;;;23.50;;
55292;SDS011;41157;53.560;10.098;2023-02-15T08:13:19;83.00;;;24.63;;
55292;SDS011;41157;53.560;10.098;2023-02-15T08:15:49;63.97;;;23.47;;
55292;SDS011;41157;53.560;10.098;2023-02-15T08:18:16;51.67;;;23.13;;
55292;SDS011;41157;53.560;10.098;2023-02-15T08:20:49;69.57;;;21.70;;
55292;SDS011;41157;53.560;10.098;2023-02-15T08:23:16;91.13;;;24.73;;
55292;SDS011;41157;53.560;10.098;2023-02-15T08:25:43;62.03;;;24.03;;
55292;SDS011;41157;53.560;10.098;2023-02-15T08:28:10;57.43;;;23.33;;
55292;SDS011;41157;53.560;10.098;2023-02-15T08:30:37;76.93;;;24.43;;
55292;SDS011;41157;53.560;10.098;2023-02-15T08:33:04;82.00;;;24.33;;
55292;SDS011;41157;53.560;10.098;2023-02-15T08:38:46;77.93;;;22.97;;
55292;SDS011;41157;53.560;10.098;2023-02-15T08:41:13;74.17;;;21.43;;
55292;SDS011;41157;53.560;10.098;2023-02-15T08:43:41;72.70;;;20.80;;
55292;SDS011;41157;53.560;10.098;2023-02-15T08:46:08;83.90;;;22.20;;
55292;SDS011;41157;53.560;10.098;2023-02-15T08:48:36;53.80;;;21.53;;
55292;SDS011;41157;53.560;10.098;2023-02-15T08:51:07;60.37;;;21.80;;
55292;SDS011;41157;53.560;10.098;2023-02-15T08:53:35;59.43;;;20.90;;
55292;SDS011;41157;53.560;10.098;2023-02-15T08:56:04;51.10;;;19.87;;
55292;SDS011;41157;53.560;10.098;2023-02-15T08:58:31;56.83;;;20.33;;
55292;SDS011;41157;53.560;10.098;2023-02-15T09:00:58;65.00;;;20.63;;
55292;SDS011;41157;53.560;10.098;2023-02-15T09:03:27;47.50;;;20.77;;
55292;SDS011;41157;53.560;10.098;2023-02-15T09:05:56;72.37;;;20.67;;
55292;SDS011;41157;53.560;10.098;2023-02-15T09:08:24;32.40;;;21.73;;
55292;SDS011;41157;53.560;10.098;2023-02-15T09:10:51;54.37;;;20.73;;
55292;SDS011;41157;53.560;10.098;2023-02-15T09:13:19;57.70;;;20.77;;
55292;SDS011;41157;53.560;10.098;2023-02-15T09:15:46;60.77;;;21.13;;
55292;SDS011;41157;53.560;10.098;2023-02-15T09:18:13;59.17;;;23.00;;
55292;SDS011;41157;53.560;10.098;2023-02-15T09:20:42;53.20;;;23.17;;
55292;SDS011;41157;53.560;10.098;2023-02-15T09:23:09;44.00;;;22.33;;
55292;SDS011;41157;53.560;10.098;2023-02-15T09:25:36;37.80;;;24.03;;
55292;SDS011;41157;53.560;10.098;2023-02-15T09:28:03;53.50;;;21.60;;
55292;SDS011;41157;53.560;10.098;2023-02-15T09:30:32;38.40;;;21.70;;
55292;SDS011;41157;53.560;10.098;2023-02-15T09:32:59;53.60;;;24.33;;
55292;SDS011;41157;53.560;10.098;2023-02-15T09:35:26;42.57;;;24.27;;
55292;SDS011;41157;53.560;10.098;2023-02-15T09:37:53;73.87;;;24.93;;
55292;SDS011;41157;53.560;10.098;2023-02-15T09:40:20;74.03;;;25.67;;
55292;SDS011;41157;53.560;10.098;2023-02-15T09:43:00;55.77;;;25.70;;
55292;SDS011;41157;53.560;10.098;2023-02-15T09:45:38;86.00;;;25.23;;
55292;SDS011;41157;53.560;10.098;2023-02-15T09:50:58;88.23;;;27.33;;
55292;SDS011;41157;53.560;10.098;2023-02-15T09:53:31;105.67;;;26.17;;
55292;SDS011;41157;53.560;10.098;2023-02-15T09:56:05;63.00;;;26.67;;
55292;SDS011;41157;53.560;10.098;2023-02-15T09:58:36;60.07;;;24.80;;
55292;SDS011;41157;53.560;10.098;2023-02-15T10:01:08;46.17;;;27.97;;
55292;SDS011;41157;53.560;10.098;2023-02-15T10:03:42;84.10;;;27.47;;
55292;SDS011;41157;53.560;10.098;2023-02-15T10:06:26;47.50;;;26.10;;
55292;SDS011;41157;53.560;10.098;2023-02-15T10:08:58;63.87;;;26.17;;
55292;SDS011;41157;53.560;10.098;2023-02-15T10:11:31;59.40;;;25.27;;
55292;SDS011;41157;53.560;10.098;2023-02-15T10:14:11;42.93;;;23.10;;
55292;SDS011;41157;53.560;10.098;2023-02-15T10:16:42;42.63;;;25.63;;
55292;SDS011;41157;53.560;10.098;2023-02-15T10:19:14;43.17;;;24.00;;
55292;SDS011;41157;53.560;10.098;2023-02-15T10:21:48;48.13;;;24.47;;
55292;SDS011;41157;53.560;10.098;2023-02-15T10:24:25;37.00;;;23.83;;
55292;SDS011;41157;53.560;10.098;2023-02-15T10:26:55;41.70;;;25.17;;
55292;SDS011;41157;53.560;10.098;2023-02-15T10:29:26;49.03;;;25.83;;
55292;SDS011;41157;53.560;10.098;2023-02-15T10:31:57;42.07;;;25.93;;
55292;SDS011;41157;53.560;10.098;2023-02-15T10:34:27;46.90;;;25.80;;
55292;SDS011;41157;53.560;10.098;2023-02-15T10:39:46;71.53;;;28.90;;
55292;SDS011;41157;53.560;10.098;2023-02-15T10:42:16;60.90;;;26.33;;
55292;SDS011;41157;53.560;10.098;2023-02-15T10:44:49;60.80;;;24.23;;
55292;SDS011;41157;53.560;10.098;2023-02-15T10:50:13;43.87;;;25.80;;
55292;SDS011;41157;53.560;10.098;2023-02-15T10:52:47;47.10;;;26.33;;
55292;SDS011;41157;53.560;10.098;2023-02-15T10:55:23;48.63;;;26.40;;
55292;SDS011;41157;53.560;10.098;2023-02-15T10:57:55;47.17;;;27.03;;
55292;SDS011;41157;53.560;10.098;2023-02-15T11:00:26;41.47;;;25.47;;
55292;SDS011;41157;53.560;10.098;2023-02-15T11:03:02;62.37;;;28.70;;
55292;SDS011;41157;53.560;10.098;2023-02-15T11:05:38;45.07;;;28.13;;
55292;SDS011;41157;53.560;10.098;2023-02-15T11:08:07;55.60;;;31.27;;
55292;SDS011;41157;53.560;10.098;2023-02-15T11:10:35;52.47;;;31.17;;
55292;SDS011;41157;53.560;10.098;2023-02-15T11:13:06;53.10;;;33.20;;
55292;SDS011;41157;53.560;10.098;2023-02-15T11:15:36;52.07;;;31.23;;
55292;SDS011;41157;53.560;10.098;2023-02-15T11:18:05;53.57;;;32.23;;
55292;SDS011;41157;53.560;10.098;2023-02-15T11:20:35;53.03;;;32.30;;
55292;SDS011;41157;53.560;10.098;2023-02-15T11:23:08;48.67;;;30.40;;
55292;SDS011;41157;53.560;10.098;2023-02-15T11:25:40;55.43;;;30.33;;
55292;SDS011;41157;53.560;10.098;2023-02-15T11:28:10;53.37;;;29.00;;
55292;SDS011;41157;53.560;10.098;2023-02-15T11:30:41;51.83;;;30.83;;
55292;SDS011;41157;53.560;10.098;2023-02-15T11:33:12;51.27;;;30.40;;
55292;SDS011;41157;53.560;10.098;2023-02-15T11:35:46;50.50;;;30.50;;
55292;SDS011;41157;53.560;10.098;2023-02-15T11:38:17;49.30;;;29.90;;
55292;SDS011;41157;53.560;10.098;2023-02-15T11:40:46;47.13;;;30.87;;
55292;SDS011;41157;53.560;10.098;2023-02-15T11:43:15;52.20;;;30.20;;
55292;SDS011;41157;53.560;10.098;2023-02-15T11:45:44;48.20;;;30.70;;
55292;SDS011;41157;53.560;10.098;2023-02-15T11:48:12;50.90;;;31.53;;
55292;SDS011;41157;53.560;10.098;2023-02-15T11:50:40;62.07;;;35.67;;
55292;SDS011;41157;53.560;10.098;2023-02-15T11:53:09;59.60;;;36.10;;
55292;SDS011;41157;53.560;10.098;2023-02-15T11:55:39;54.00;;;34.77;;
55292;SDS011;41157;53.560;10.098;2023-02-15T11:58:09;61.20;;;36.40;;
55292;SDS011;41157;53.560;10.098;2023-02-15T12:00:40;62.67;;;38.03;;
55292;SDS011;41157;53.560;10.098;2023-02-15T12:03:11;59.23;;;36.37;;
55292;SDS011;41157;53.560;10.098;2023-02-15T12:05:40;58.60;;;36.70;;
55292;SDS011;41157;53.560;10.098;2023-02-15T12:08:11;62.37;;;37.37;;
55292;SDS011;41157;53.560;10.098;2023-02-15T12:10:42;61.03;;;37.40;;
55292;SDS011;41157;53.560;10.098;2023-02-15T12:13:13;57.07;;;37.13;;
55292;SDS011;41157;53.560;10.098;2023-02-15T12:15:41;52.70;;;34.57;;
55292;SDS011;41157;53.560;10.098;2023-02-15T12:18:15;58.43;;;38.10;;
55292;SDS011;41157;53.560;10.098;2023-02-15T12:20:44;54.87;;;36.90;;
55292;SDS011;41157;53.560;10.098;2023-02-15T12:23:12;54.80;;;35.90;;
55292;SDS011;41157;53.560;10.098;2023-02-15T12:25:41;60.97;;;36.73;;
55292;SDS011;41157;53.560;10.098;2023-02-15T12:28:18;59.53;;;38.07;;
55292;SDS011;41157;53.560;10.098;2023-02-15T12:30:47;55.67;;;37.20;;
55292;SDS011;41157;53.560;10.098;2023-02-15T12:33:15;57.23;;;36.63;;
55292;SDS011;41157;53.560;10.098;2023-02-15T12:35:42;57.93;;;36.70;;
55292;SDS011;41157;53.560;10.098;2023-02-15T12:38:19;54.70;;;35.97;;
55292;SDS011;41157;53.560;10.098;2023-02-15T12:40:56;56.93;;;34.20;;
55292;SDS011;41157;53.560;10.098;2023-02-15T12:43:24;53.00;;;34.73;;
55292;SDS011;41157;53.560;10.098;2023-02-15T12:45:51;50.17;;;33.70;;
55292;SDS011;41157;53.560;10.098;2023-02-15T12:48:19;55.60;;;34.73;;
55292;SDS011;41157;53.560;10.098;2023-02-15T12:50:47;53.63;;;36.10;;
55292;SDS011;41157;53.560;10.098;2023-02-15T12:53:15;51.83;;;34.87;;
55292;SDS011;41157;53.560;10.098;2023-02-15T12:55:50;49.60;;;33.83;;
55292;SDS011;41157;53.560;10.098;2023-02-15T12:58:19;55.33;;;34.70;;
55292;SDS011;41157;53.560;10.098;2023-02-15T13:00:48;53.53;;;34.90;;
55292;SDS011;41157;53.560;10.098;2023-02-15T13:03:27;44.50;;;30.03;;
55292;SDS011;41157;53.560;10.098;2023-02-15T13:05:55;47.33;;;30.80;;
55292;SDS011;41157;53.560;10.098;2023-02-15T13:08:26;36.17;;;27.33;;
55292;SDS011;41157;53.560;10.098;2023-02-15T13:10:54;41.30;;;28.63;;
55292;SDS011;41157;53.560;10.098;2023-02-15T13:13:25;40.60;;;27.50;;
55292;SDS011;41157;53.560;10.098;2023-02-15T13:15:54;32.27;;;24.57;;
55292;SDS011;41157;53.560;10.098;2023-02-15T13:18:25;36.33;;;26.17;;
55292;SDS011;41157;53.560;10.098;2023-02-15T13:20:55;35.83;;;25.20;;
55292;SDS011;41157;53.560;10.098;2023-02-15T13:23:25;33.47;;;25.03;;
55292;SDS011;41157;53.560;10.098;2023-02-15T13:25:54;26.97;;;21.60;;
55292;SDS011;41157;53.560;10.098;2023-02-15T13:28:24;25.43;;;20.30;;
55292;SDS011;41157;53.560;10.098;2023-02-15T13:30:53;24.60;;;18.93;;
55292;SDS011;41157;53.560;10.098;2023-02-15T13:33:23;34.00;;;19.90;;
55292;SDS011;41157;53.560;10.098;2023-02-15T13:35:55;25.90;;;19.60;;
55292;SDS011;41157;53.560;10.098;2023-02-15T13:38:36;24.77;;;18.03;;
55292;SDS011;41157;53.560;10.098;2023-02-15T13:41:09;24.07;;;18.23;;
55292;SDS011;41157;53.560;10.098;2023-02-15T13:43:41;27.17;;;19.30;;
55292;SDS011;41157;53.560;10.098;2023-02-15T13:46:17;23.37;;;17.77;;
55292;SDS011;41157;53.560;10.098;2023-02-15T13:48:50;27.50;;;19.37;;
55292;SDS011;41157;53.560;10.098;2023-02-15T13:51:21;25.20;;;19.23;;
55292;SDS011;41157;53.560;10.098;2023-02-15T13:54:02;26.03;;;19.60;;
55292;SDS011;41157;53.560;10.098;2023-02-15T13:56:38;28.13;;;18.87;;
55292;SDS011;41157;53.560;10.098;2023-02-15T13:59:24;25.03;;;18.97;;
55292;SDS011;41157;53.560;10.098;2023-02-15T14:01:57;25.03;;;18.67;;
55292;SDS011;41157;53.560;10.098;2023-02-15T14:04:37;26.20;;;18.53;;
55292;SDS011;41157;53.560;10.098;2023-02-15T14:07:18;27.67;;;19.03;;
55292;SDS011;41157;53.560;10.098;2023-02-15T14:09:48;24.83;;;18.23;;
55292;SDS011;41157;53.560;10.098;2023-02-15T14:12:32;26.70;;;18.50;;
55292;SDS011;41157;53.560;10.098;2023-02-15T14:17:46;25.63;;;18.57;;
55292;SDS011;41157;53.560;10.098;2023-02-15T14:20:17;22.07;;;17.67;;
55292;SDS011;41157;53.560;10.098;2023-02-15T14:22:46;22.30;;;17.37;;
55292;SDS011;41157;53.560;10.098;2023-02-15T14:25:17;25.20;;;17.97;;
55292;SDS011;41157;53.560;10.098;2023-02-15T14:27:49;24.80;;;18.93;;
55292;SDS011;41157;53.560;10.098;2023-02-15T14:30:20;23.07;;;19.00;;
55292;SDS011;41157;53.560;10.098;2023-02-15T14:32:51;22.83;;;17.17;;
55292;SDS011;41157;53.560;10.098;2023-02-15T14:35:20;22.30;;;17.47;;
55292;SDS011;41157;53.560;10.098;2023-02-15T14:37:49;26.60;;;17.33;;
55292;SDS011;41157;53.560;10.098;2023-02-15T14:40:19;27.77;;;16.77;;